Startpagina
METAR-TAF:

METAR-TAF

Vliegvelden :

Kudat, Maleisië

breedte: 06-55N, lengte: 116-50E, hoogte: 3 m

Actueel weer

Dit bericht is 1 uur en het 5 minuten geleden gemaakt, om 10:00 UTC
Wind 7 kt uit het westzuidwesten, variërend tussen het zuidzuidwesten en het westen
Temperatuur 31°C
Vochtigheid 59%
Druk 1005 hPa

METAR: WBKT 251000Z AUTO 25007KT 210V280 //// // ////// 31/22 Q1005

Tijdstip: 19:05 (11:05 UTC)


TAF: ontbreekt

Waarnemingen en weersverwachtingen van meer dan 4000 vliegvelden (METAR en TAF).

De beschikbare stations zijn de gele en rode punten op de kaart.

Ga met uw muis naar het station om de naam te zien.

Klik dan om waarnemingen en weersverwachtingen te zien.

kaart wijzigen: klik op de groene knoppen met een zwart kruis om in te zoomen, op de groene knop met een streepje om uit te zoomen of op de groene pijlen voor aangrenzende kaarten.


METAR-TAF: